Time;durP1;ratioP1;P1;durP2;ratioP2;P2;SDS_P1;SDS_P2;PMS_P1;PMS_P2;Temp;Humidity;BMP_temperature;BMP_pressure;BME280_temperature;BME280_humidity;BME280_pressure;Samples;Min_cycle;Max_cycle;Signal;HPM_P1;HPM_P2
2021/10/10 00:01:36;;;;;;;14.50;12.70;;;10.80;99.90;;;;;;10542145;28;20218;-85
2021/10/10 00:06:38;;;;;;;13.70;12.23;;;10.80;99.90;;;;;;10530434;28;20336;-85
2021/10/10 00:11:42;;;;;;;15.30;12.47;;;10.70;99.90;;;;;;10568822;28;20234;-85
2021/10/10 00:16:44;;;;;;;14.10;12.70;;;10.70;99.90;;;;;;10559691;28;20192;-84
2021/10/10 00:21:46;;;;;;;13.27;11.93;;;10.60;99.90;;;;;;10561436;28;20207;-85
2021/10/10 00:26:50;;;;;;;13.40;12.00;;;10.60;99.90;;;;;;10550670;28;20713;-85
2021/10/10 00:31:52;;;;;;;10.70;9.60;;;10.60;99.90;;;;;;10527942;28;20699;-85
2021/10/10 00:36:54;;;;;;;12.53;11.33;;;10.60;99.90;;;;;;10537877;28;20234;-84
2021/10/10 00:41:59;;;;;;;12.80;11.60;;;10.50;99.90;;;;;;10544546;28;20207;-85
2021/10/10 00:47:02;;;;;;;13.47;12.07;;;10.50;99.90;;;;;;10544320;28;20635;-85
2021/10/10 00:52:06;;;;;;;14.17;11.90;;;10.40;99.90;;;;;;10548475;28;20284;-85
2021/10/10 00:57:10;;;;;;;13.60;11.83;;;10.40;99.90;;;;;;10539295;28;20705;-85
2021/10/10 01:02:13;;;;;;;13.73;11.77;;;10.40;99.90;;;;;;10521731;28;20212;-85
2021/10/10 01:07:15;;;;;;;14.37;11.70;;;10.30;99.90;;;;;;10552130;28;20224;-85
2021/10/10 01:12:19;;;;;;;14.00;11.67;;;10.30;99.90;;;;;;10530473;28;20207;-85
2021/10/10 01:17:23;;;;;;;12.03;10.83;;;10.30;99.90;;;;;;10537099;28;20310;-85
2021/10/10 01:22:29;;;;;;;11.77;10.67;;;10.20;99.90;;;;;;10503729;28;20206;-85
2021/10/10 01:27:31;;;;;;;12.83;11.37;;;10.20;99.90;;;;;;10525680;28;20687;-85
2021/10/10 01:32:33;;;;;;;15.40;11.30;;;10.20;99.90;;;;;;10509496;28;20207;-85
2021/10/10 01:37:40;;;;;;;14.50;12.23;;;10.20;99.90;;;;;;10544660;28;20226;-85
2021/10/10 01:42:43;;;;;;;12.27;11.07;;;10.30;99.90;;;;;;10534194;28;20236;-85
2021/10/10 01:47:45;;;;;;;12.67;11.57;;;10.30;99.90;;;;;;10553302;28;20226;-85
2021/10/10 01:52:50;;;;;;;11.77;10.60;;;10.20;99.90;;;;;;10537638;28;20257;-85
2021/10/10 01:57:52;;;;;;;13.20;11.90;;;10.20;99.90;;;;;;10539965;28;20247;-85
2021/10/10 02:02:54;;;;;;;15.83;14.17;;;10.20;99.90;;;;;;10552999;28;20241;-85
2021/10/10 02:07:58;;;;;;;11.90;10.77;;;10.20;99.90;;;;;;10537188;28;20224;-85
2021/10/10 02:13:00;;;;;;;14.30;12.73;;;10.20;99.90;;;;;;10547488;28;20199;-85
2021/10/10 02:18:02;;;;;;;17.03;12.87;;;10.20;99.90;;;;;;10566652;28;20562;-85
2021/10/10 02:23:05;;;;;;;13.60;12.30;;;10.10;99.90;;;;;;10544044;28;20204;-85
2021/10/10 02:28:07;;;;;;;13.70;12.30;;;10.10;99.90;;;;;;10569138;28;20231;-85
2021/10/10 02:33:10;;;;;;;13.37;12.07;;;10.10;99.90;;;;;;10537789;28;20207;-85
2021/10/10 02:38:13;;;;;;;13.73;12.13;;;10.10;99.90;;;;;;10560753;28;20391;-85
2021/10/10 02:43:15;;;;;;;15.13;12.33;;;10.00;99.90;;;;;;10530163;28;20199;-85
2021/10/10 02:48:17;;;;;;;13.60;12.20;;;9.90;99.90;;;;;;10546442;28;20691;-85
2021/10/10 02:53:21;;;;;;;13.30;12.00;;;9.90;99.90;;;;;;10562447;28;20603;-84
2021/10/10 02:58:26;;;;;;;14.20;12.90;;;9.90;99.90;;;;;;10553818;28;20230;-85
2021/10/10 03:03:28;;;;;;;13.10;11.80;;;9.90;99.90;;;;;;10546854;28;20211;-85
2021/10/10 03:08:31;;;;;;;13.47;11.80;;;9.90;99.90;;;;;;10545244;28;20231;-85
2021/10/10 03:13:34;;;;;;;13.17;11.73;;;9.80;99.90;;;;;;10537010;28;20200;-85
2021/10/10 03:18:36;;;;;;;13.60;12.33;;;9.80;99.90;;;;;;10534008;28;20222;-85
2021/10/10 03:23:39;;;;;;;13.70;12.30;;;9.70;99.90;;;;;;10559222;28;20253;-85
2021/10/10 03:28:41;;;;;;;16.43;13.50;;;9.60;99.90;;;;;;10538721;28;20230;-85
2021/10/10 03:33:44;;;;;;;14.33;12.60;;;9.60;99.90;;;;;;10537472;28;20204;-85
2021/10/10 03:38:47;;;;;;;16.60;13.60;;;9.60;99.90;;;;;;10578553;28;20218;-85
2021/10/10 03:43:49;;;;;;;15.00;13.50;;;9.50;99.90;;;;;;10521577;28;20776;-85
2021/10/10 03:48:51;;;;;;;15.40;14.00;;;9.60;99.90;;;;;;10555814;28;20241;-85
2021/10/10 03:54:34;;;;;;;13.20;12.00;;;9.60;99.90;;;;;;10544601;28;20663;-85
2021/10/10 03:59:35;;;;;;;14.83;13.53;;;9.60;99.90;;;;;;10530074;28;20623;-85
2021/10/10 04:04:37;;;;;;;16.97;13.90;;;9.50;99.90;;;;;;10504608;28;20210;-85
2021/10/10 04:09:40;;;;;;;15.37;13.77;;;9.50;99.90;;;;;;10529752;28;20588;-85
2021/10/10 04:14:42;;;;;;;14.53;13.20;;;9.50;99.90;;;;;;10537593;28;20206;-85
2021/10/10 04:19:45;;;;;;;15.37;14.00;;;9.50;99.90;;;;;;10548705;28;20240;-85
2021/10/10 04:24:48;;;;;;;16.77;14.90;;;9.50;99.90;;;;;;10543007;28;20196;-85
2021/10/10 04:29:50;;;;;;;15.80;14.20;;;9.40;99.90;;;;;;10540445;28;20254;-85
2021/10/10 04:34:52;;;;;;;16.07;14.47;;;9.40;99.90;;;;;;10557979;28;20419;-85
2021/10/10 04:39:56;;;;;;;15.80;14.40;;;9.40;99.90;;;;;;10535542;22;20224;-84
2021/10/10 04:44:58;;;;;;;15.70;14.10;;;9.40;99.90;;;;;;10469625;28;20231;-83
2021/10/10 04:50:00;;;;;;;19.63;17.53;;;9.40;99.90;;;;;;10478051;28;20255;-83
2021/10/10 04:55:04;;;;;;;17.27;15.67;;;9.40;99.90;;;;;;10498211;28;20192;-83
2021/10/10 05:00:08;;;;;;;15.70;14.13;;;9.30;99.90;;;;;;10475613;28;20218;-85
2021/10/10 05:05:11;;;;;;;17.00;15.43;;;9.30;99.90;;;;;;10501962;28;20197;-83
2021/10/10 05:10:14;;;;;;;18.40;15.60;;;9.30;99.90;;;;;;10478066;28;20231;-83
2021/10/10 05:15:16;;;;;;;17.90;15.67;;;9.30;99.90;;;;;;10481258;28;20227;-83
2021/10/10 05:20:19;;;;;;;16.73;15.23;;;9.20;99.90;;;;;;10469940;28;20358;-83
2021/10/10 05:25:22;;;;;;;19.20;16.17;;;9.20;99.90;;;;;;10469804;28;20295;-84
2021/10/10 05:30:24;;;;;;;17.43;15.60;;;9.10;99.90;;;;;;10489939;28;20229;-83
2021/10/10 05:35:26;;;;;;;20.77;15.40;;;9.10;99.90;;;;;;10478700;28;20193;-85
2021/10/10 05:40:30;;;;;;;18.97;17.00;;;9.10;99.90;;;;;;10470609;28;20256;-84
2021/10/10 05:45:32;;;;;;;18.10;16.30;;;9.20;99.90;;;;;;10491000;28;20311;-83
2021/10/10 05:50:34;;;;;;;20.00;17.90;;;9.20;99.90;;;;;;10498671;28;20311;-83
2021/10/10 05:55:39;;;;;;;19.57;17.67;;;9.10;99.90;;;;;;10481249;28;20197;-83
2021/10/10 06:00:41;;;;;;;18.13;15.90;;;9.10;99.90;;;;;;10485290;28;20236;-83
2021/10/10 06:05:43;;;;;;;17.07;15.47;;;9.10;99.90;;;;;;10480742;28;20193;-83
2021/10/10 06:10:46;;;;;;;17.53;15.83;;;9.10;99.90;;;;;;10463783;28;20576;-83
2021/10/10 06:15:50;;;;;;;16.73;15.27;;;9.10;99.90;;;;;;10494878;28;20192;-84
2021/10/10 06:20:52;;;;;;;17.33;15.53;;;9.10;99.90;;;;;;10476712;28;20220;-83
2021/10/10 06:25:55;;;;;;;17.17;15.40;;;9.10;99.90;;;;;;10476639;28;20206;-83
2021/10/10 06:30:57;;;;;;;15.63;13.90;;;9.20;99.90;;;;;;10473595;28;20253;-83
2021/10/10 06:35:59;;;;;;;16.33;14.63;;;9.20;99.90;;;;;;10486311;28;20204;-84
2021/10/10 06:41:03;;;;;;;19.40;16.53;;;9.30;99.90;;;;;;10471999;28;20221;-83
2021/10/10 06:46:05;;;;;;;17.10;15.60;;;9.30;99.90;;;;;;10473360;28;20282;-84
2021/10/10 06:51:08;;;;;;;18.53;15.27;;;9.30;99.90;;;;;;10491551;28;20311;-84
2021/10/10 06:56:11;;;;;;;16.20;14.60;;;9.40;99.90;;;;;;10466418;28;20211;-83
2021/10/10 07:01:14;;;;;;;17.50;15.47;;;9.40;99.90;;;;;;10472966;28;20254;-85
2021/10/10 07:06:17;;;;;;;16.33;14.67;;;9.50;99.90;;;;;;10480746;28;20212;-84
2021/10/10 07:11:20;;;;;;;15.00;13.60;;;9.50;99.90;;;;;;10508048;28;20688;-83
2021/10/10 07:16:26;;;;;;;15.93;14.23;;;9.50;99.90;;;;;;10478892;28;20228;-83
2021/10/10 07:21:41;;;;;;;15.40;13.90;;;9.60;99.90;;;;;;10492345;28;20641;-84
2021/10/10 07:26:45;;;;;;;17.57;15.80;;;9.70;99.90;;;;;;10460348;28;20616;-85
2021/10/10 07:31:47;;;;;;;18.87;16.97;;;9.80;99.90;;;;;;10467936;28;20220;-84
2021/10/10 07:36:49;;;;;;;18.13;16.43;;;9.90;99.90;;;;;;10461847;28;20213;-85
2021/10/10 07:41:54;;;;;;;17.40;15.70;;;10.00;99.90;;;;;;10479586;28;20251;-85
2021/10/10 07:47:06;;;;;;;17.53;15.80;;;10.00;99.90;;;;;;10500288;28;20254;-85
2021/10/10 07:52:08;;;;;;;17.93;16.07;;;10.10;99.90;;;;;;10468838;28;20651;-85
2021/10/10 07:57:12;;;;;;;17.53;15.80;;;10.20;99.90;;;;;;10475507;28;20250;-85
2021/10/10 08:02:14;;;;;;;19.57;17.60;;;10.30;99.90;;;;;;10478134;28;20215;-85
2021/10/10 08:07:17;;;;;;;19.33;17.53;;;10.40;99.90;;;;;;10484034;28;20224;-85
2021/10/10 08:12:20;;;;;;;18.73;16.83;;;10.50;99.90;;;;;;10474696;28;20200;-85
2021/10/10 08:17:22;;;;;;;18.77;16.87;;;10.60;99.90;;;;;;10471520;28;20223;-85
2021/10/10 08:22:24;;;;;;;19.03;17.43;;;10.70;99.90;;;;;;10470602;28;20212;-86
2021/10/10 08:27:28;;;;;;;18.83;17.03;;;10.80;99.90;;;;;;10500700;28;20227;-86
2021/10/10 08:32:30;;;;;;;19.77;17.63;;;10.80;99.90;;;;;;10481575;28;20214;-86
2021/10/10 08:37:32;;;;;;;18.17;16.37;;;10.90;99.90;;;;;;10489947;28;20228;-86
2021/10/10 08:42:41;;;;;;;19.90;18.00;;;11.00;99.90;;;;;;10467460;28;20212;-87
2021/10/10 08:47:45;;;;;;;24.50;20.03;;;11.10;99.90;;;;;;10491013;28;20226;-85
2021/10/10 08:52:50;;;;;;;19.57;16.83;;;11.20;99.90;;;;;;10490204;28;20230;-85
2021/10/10 08:57:54;;;;;;;19.77;17.80;;;11.30;99.90;;;;;;10461485;28;20311;-86
2021/10/10 09:02:57;;;;;;;18.67;16.87;;;11.40;99.90;;;;;;10464751;28;20212;-86
2021/10/10 09:07:59;;;;;;;19.57;17.63;;;11.50;99.90;;;;;;10474487;28;20255;-85
2021/10/10 09:13:08;;;;;;;19.80;17.77;;;11.60;99.90;;;;;;10487451;28;20228;-85
2021/10/10 09:18:11;;;;;;;17.47;15.67;;;11.70;99.90;;;;;;10456002;28;20217;-85
2021/10/10 09:23:31;;;;;;;19.30;17.07;;;11.80;99.90;;;;;;10486349;28;20231;-85
2021/10/10 09:28:36;;;;;;;17.83;15.93;;;11.90;99.90;;;;;;10474629;28;20232;-85
2021/10/10 09:33:41;;;;;;;17.60;15.90;;;12.00;99.90;;;;;;10487874;28;20192;-85
2021/10/10 09:38:52;;;;;;;19.13;17.17;;;12.20;99.90;;;;;;10471204;28;20260;-85
2021/10/10 09:44:01;;;;;;;19.50;17.50;;;12.40;99.90;;;;;;10477489;28;20223;-85
2021/10/10 09:49:21;;;;;;;17.40;15.60;;;12.50;99.90;;;;;;10477654;28;20232;-85
2021/10/10 09:54:24;;;;;;;21.03;16.27;;;12.50;99.90;;;;;;10487396;28;20207;-85
2021/10/10 09:59:28;;;;;;;15.80;13.83;;;12.60;99.90;;;;;;10476233;28;20224;-86
2021/10/10 10:04:43;;;;;;;16.93;15.33;;;12.60;99.90;;;;;;10485263;28;20215;-85
2021/10/10 10:09:50;;;;;;;18.03;15.20;;;12.70;99.90;;;;;;10484588;28;20712;-86
2021/10/10 10:14:56;;;;;;;17.23;15.40;;;12.70;99.90;;;;;;10481999;28;20295;-85
2021/10/10 10:20:01;;;;;;;16.83;15.13;;;12.70;99.90;;;;;;10482568;28;20726;-85
2021/10/10 10:25:04;;;;;;;17.57;15.87;;;12.80;99.90;;;;;;10498748;28;20196;-86
2021/10/10 10:30:12;;;;;;;19.03;16.80;;;12.80;99.90;;;;;;10483241;28;20687;-86
2021/10/10 10:35:16;;;;;;;17.67;15.77;;;12.80;99.90;;;;;;10483439;28;20200;-86
2021/10/10 16:42:42;;;;;;;11.00;10.00;;;13.20;99.90;;;;;;10195610;23;20619;-82
2021/10/10 16:47:47;;;;;;;10.67;9.50;;;13.00;99.90;;;;;;10172226;29;20237;-84
2021/10/10 16:52:49;;;;;;;9.93;9.03;;;12.90;99.90;;;;;;10187672;29;20213;-84
2021/10/10 16:57:53;;;;;;;10.30;9.40;;;12.80;99.90;;;;;;10193303;29;20232;-84
2021/10/10 17:02:55;;;;;;;9.40;8.60;;;12.60;99.90;;;;;;10164989;29;20297;-86
2021/10/10 17:07:57;;;;;;;11.47;10.30;;;12.60;99.90;;;;;;10191000;29;20260;-85
2021/10/10 17:13:02;;;;;;;12.63;11.40;;;12.60;99.90;;;;;;10196370;29;20292;-84
2021/10/10 17:18:04;;;;;;;14.13;12.73;;;12.60;99.90;;;;;;10191026;29;20575;-83
2021/10/10 17:23:06;;;;;;;21.13;19.03;;;12.50;99.90;;;;;;10168648;29;20204;-83
2021/10/10 17:28:09;;;;;;;15.23;12.53;;;12.40;99.90;;;;;;10177798;29;20296;-83
2021/10/10 17:33:15;;;;;;;14.30;13.00;;;12.30;99.90;;;;;;10191722;29;20235;-83
2021/10/10 17:38:17;;;;;;;13.60;12.30;;;12.20;99.90;;;;;;10165296;29;20236;-83
2021/10/10 17:43:21;;;;;;;12.57;11.40;;;12.10;99.90;;;;;;10196840;29;20293;-83
2021/10/10 17:48:23;;;;;;;11.20;10.20;;;12.10;99.90;;;;;;10185238;29;20237;-82
2021/10/10 17:53:28;;;;;;;11.43;10.33;;;12.00;99.90;;;;;;10182543;29;20659;-83
2021/10/10 17:58:41;;;;;;;18.27;16.40;;;12.00;99.90;;;;;;10183712;29;20225;-83
2021/10/10 18:04:04;;;;;;;16.37;14.07;;;12.00;99.90;;;;;;10200893;29;20209;-82
2021/10/10 18:14:46;;;;;;;14.00;12.00;;;12.00;99.90;;;;;;10119780;29;20309;-81
2021/10/10 18:19:49;;;;;;;13.97;10.60;;;12.00;99.90;;;;;;10147414;29;20230;-82
2021/10/10 18:24:54;;;;;;;14.30;12.90;;;11.90;99.90;;;;;;10195427;29;20210;-81
2021/10/10 18:29:57;;;;;;;13.70;12.30;;;11.90;99.90;;;;;;10174905;29;20232;-86
2021/10/10 18:34:59;;;;;;;13.57;12.17;;;11.80;99.90;;;;;;10185687;29;20209;-83
2021/10/10 18:40:02;;;;;;;14.07;12.77;;;11.80;99.90;;;;;;10185070;29;20233;-83
2021/10/10 18:45:06;;;;;;;14.80;13.40;;;11.70;99.90;;;;;;10187333;29;20422;-83
2021/10/10 18:50:09;;;;;;;14.20;12.90;;;11.70;99.90;;;;;;10168346;29;20629;-86
2021/10/10 18:55:11;;;;;;;16.93;14.73;;;11.60;99.90;;;;;;10180892;29;20213;-83
2021/10/10 19:00:16;;;;;;;15.40;13.90;;;11.60;99.90;;;;;;10177463;29;20730;-82
2021/10/10 19:05:19;;;;;;;17.27;15.13;;;11.50;99.90;;;;;;10174885;29;20205;-82
2021/10/10 19:10:21;;;;;;;21.07;16.40;;;11.40;99.90;;;;;;10193590;29;20611;-82
2021/10/10 19:15:24;;;;;;;14.23;13.03;;;11.30;99.90;;;;;;10191631;29;20291;-82
2021/10/10 19:20:27;;;;;;;18.10;16.40;;;11.30;99.90;;;;;;10192155;29;20240;-82
2021/10/10 19:25:31;;;;;;;16.37;14.37;;;11.30;99.90;;;;;;10181514;29;20206;-82
2021/10/10 19:30:35;;;;;;;14.90;13.50;;;11.20;99.90;;;;;;10195886;29;20233;-82
2021/10/10 19:35:37;;;;;;;15.63;14.13;;;11.20;99.90;;;;;;10189763;29;20639;-82
2021/10/10 19:40:40;;;;;;;14.80;13.40;;;11.20;99.90;;;;;;10173404;29;20272;-82
2021/10/10 19:45:43;;;;;;;15.07;13.63;;;11.10;99.90;;;;;;10175307;29;20220;-82
2021/10/10 19:50:46;;;;;;;16.17;14.33;;;11.10;99.90;;;;;;10196691;29;20233;-81
2021/10/10 19:55:48;;;;;;;17.90;14.57;;;11.10;99.90;;;;;;10190586;29;20595;-82
2021/10/10 20:00:51;;;;;;;16.17;14.57;;;11.00;99.90;;;;;;10176700;29;20629;-82
2021/10/10 20:05:54;;;;;;;15.23;13.70;;;10.90;99.90;;;;;;10154262;29;20213;-82
2021/10/10 20:10:56;;;;;;;18.17;13.70;;;10.90;99.90;;;;;;10172133;29;20233;-82
2021/10/10 20:16:00;;;;;;;15.97;14.43;;;10.90;99.90;;;;;;10163119;29;20237;-82
2021/10/10 20:21:02;;;;;;;14.63;13.10;;;10.90;99.90;;;;;;10207788;29;20225;-82
2021/10/10 20:26:04;;;;;;;16.87;15.20;;;10.90;99.90;;;;;;10182601;29;20248;-82
2021/10/10 20:31:08;;;;;;;15.53;14.03;;;10.90;99.90;;;;;;10216236;29;20316;-82
2021/10/10 20:36:11;;;;;;;16.47;14.67;;;10.80;99.90;;;;;;10177083;29;20213;-82
2021/10/10 20:41:14;;;;;;;15.30;13.80;;;10.80;99.90;;;;;;10196529;29;20237;-83
2021/10/10 20:46:19;;;;;;;15.77;14.07;;;10.70;99.90;;;;;;10169154;29;20734;-84
2021/10/10 20:51:21;;;;;;;14.47;13.03;;;10.80;99.90;;;;;;10165066;29;20230;-81
2021/10/10 20:56:24;;;;;;;15.50;13.50;;;10.70;99.90;;;;;;10186305;29;20197;-81
2021/10/10 21:01:27;;;;;;;16.23;13.77;;;10.70;99.90;;;;;;10198308;29;20229;-81
2021/10/10 21:06:31;;;;;;;14.40;13.00;;;10.70;99.90;;;;;;10178125;29;20213;-81
2021/10/10 21:11:33;;;;;;;15.07;13.60;;;10.60;99.90;;;;;;10186569;29;20230;-81
2021/10/10 21:16:37;;;;;;;17.00;15.30;;;10.60;99.90;;;;;;10205575;29;20576;-83
2021/10/10 21:21:39;;;;;;;16.97;14.47;;;10.60;99.90;;;;;;10189141;29;20230;-81
2021/10/10 21:26:43;;;;;;;15.90;14.30;;;10.60;99.90;;;;;;10206604;29;20270;-82
2021/10/10 21:31:53;;;;;;;15.97;14.47;;;10.50;99.90;;;;;;10221033;29;20252;-82
2021/10/10 21:36:55;;;;;;;16.30;14.47;;;10.60;99.90;;;;;;10170284;29;20276;-83
2021/10/10 21:41:58;;;;;;;18.60;15.27;;;10.50;99.90;;;;;;10190705;29;20308;-82
2021/10/10 21:47:02;;;;;;;16.33;14.67;;;10.50;99.90;;;;;;10194027;29;20204;-82
2021/10/10 21:52:04;;;;;;;16.90;15.20;;;10.50;99.90;;;;;;10181986;29;20240;-82
2021/10/10 21:57:07;;;;;;;16.67;14.97;;;10.50;99.90;;;;;;10179003;29;20308;-81
2021/10/10 22:02:11;;;;;;;15.57;14.00;;;10.50;99.90;;;;;;10179952;29;20661;-82
2021/10/10 22:07:13;;;;;;;15.03;13.53;;;10.50;99.90;;;;;;10185565;29;20227;-81
2021/10/10 22:12:16;;;;;;;15.13;13.73;;;10.40;99.90;;;;;;10208444;29;20225;-81
2021/10/10 22:17:19;;;;;;;16.80;13.83;;;10.40;99.90;;;;;;10192583;29;20304;-81
2021/10/10 22:22:21;;;;;;;15.20;13.80;;;10.30;99.90;;;;;;10212063;29;20304;-81
2021/10/10 22:27:28;;;;;;;15.27;13.83;;;10.30;99.90;;;;;;10211517;29;20292;-82
2021/10/10 22:32:32;;;;;;;14.23;12.90;;;10.30;99.90;;;;;;10209305;29;20237;-82
2021/10/10 22:37:34;;;;;;;17.17;13.30;;;10.20;99.90;;;;;;10202057;29;20211;-81
2021/10/10 22:42:36;;;;;;;15.17;13.53;;;10.20;99.90;;;;;;10235864;23;20591;-81
2021/10/10 22:47:51;;;;;;;;;;;;;;;;;;;;;
2021/10/10 22:52:56;;;;;;;14.93;13.30;;;10.20;99.90;;;;;;10165308;29;20546;-81
2021/10/10 22:57:58;;;;;;;15.07;13.30;;;10.20;99.90;;;;;;10151422;29;20689;-81
2021/10/10 23:03:02;;;;;;;14.17;12.87;;;10.10;99.90;;;;;;10147086;29;20250;-81
2021/10/10 23:08:04;;;;;;;14.97;13.57;;;10.10;99.90;;;;;;10145746;29;20216;-81
2021/10/10 23:13:06;;;;;;;16.23;13.23;;;10.00;99.90;;;;;;10140729;29;20214;-81
2021/10/10 23:18:10;;;;;;;15.43;13.93;;;9.90;99.90;;;;;;10179635;29;20217;-81
2021/10/10 23:23:12;;;;;;;14.73;13.33;;;9.90;99.90;;;;;;10159416;29;20209;-81
2021/10/10 23:28:14;;;;;;;14.23;12.90;;;9.80;99.90;;;;;;10159785;29;20233;-81
2021/10/10 23:33:18;;;;;;;14.00;12.70;;;9.80;99.90;;;;;;10178530;29;20221;-81
2021/10/10 23:38:20;;;;;;;16.10;14.50;;;9.80;99.90;;;;;;10170023;29;20265;-82
2021/10/10 23:43:22;;;;;;;15.00;13.53;;;9.80;99.90;;;;;;10152730;29;20671;-81
2021/10/10 23:48:26;;;;;;;15.00;13.53;;;9.80;99.90;;;;;;10169001;29;20281;-81
2021/10/10 23:53:28;;;;;;;13.27;11.97;;;9.80;99.90;;;;;;10169482;29;20213;-82
2021/10/10 23:58:31;;;;;;;14.70;13.17;;;9.70;99.90;;;;;;10150879;29;20288;-82
